Grindstone Creek Rancheria, California
Current Conditions -  °F | °C
As of 9:48 AM on Saturday 25 Oct 2014 (Local Time) from KCIC Reporting Station
Broken Clouds Broken Clouds  
Wind Chill: 15°   Ceiling: 5500
Heat Index: 15°   Visibility: 25mi
Dew Point: 12°   Wind: 23mph
Humidity: 82%   Direction: 120°ESE
Pressure: 29.95"   Gusts: 31mph
Location:  39.5562°N, 122.604°W
Report Text: KCIC 251648Z 12020G27KT 25SM SCT025 BKN055 BKN100 15/12 A2995
Loading
Personal Weather Stations






























Interactive Weather Map
Tropical Storm Tracking
New forecast layout! Learn more

10-Day Weather Forecast

Advertisements
Track Severe Weather on mobile